createdAt,value
2023-03-05T00:00:22.330Z,0.00
2023-03-05T00:01:22.315Z,0.00
2023-03-05T00:02:22.383Z,0.00
2023-03-05T00:03:22.568Z,0.00
2023-03-05T00:04:22.317Z,0.00
2023-03-05T00:05:22.344Z,0.00
2023-03-05T00:06:22.330Z,0.00
2023-03-05T00:07:22.332Z,0.00
2023-03-05T00:08:22.325Z,0.00
2023-03-05T00:09:22.324Z,0.00
2023-03-05T00:10:22.344Z,0.00
2023-03-05T00:11:22.349Z,0.00
2023-03-05T00:12:22.336Z,0.00
2023-03-05T00:13:22.335Z,0.00
2023-03-05T00:14:22.356Z,0.00
2023-03-05T00:15:22.336Z,0.00
2023-03-05T00:16:22.431Z,0.00
2023-03-05T00:17:22.349Z,0.00
2023-03-05T00:18:22.345Z,0.00
2023-03-05T00:19:22.354Z,0.00
2023-03-05T00:21:22.374Z,0.00
2023-03-05T00:22:22.356Z,0.00
2023-03-05T00:23:22.354Z,0.00
2023-03-05T00:24:22.355Z,0.00
2023-03-05T00:25:22.352Z,0.00
2023-03-05T00:26:22.377Z,0.00
2023-03-05T00:27:22.373Z,0.00
2023-03-05T00:28:22.367Z,0.00
2023-03-05T00:29:22.367Z,0.00
2023-03-05T00:30:22.378Z,0.00
2023-03-05T00:31:22.435Z,0.00
2023-03-05T00:32:22.453Z,0.00
2023-03-05T00:33:22.379Z,0.00
2023-03-05T00:34:22.372Z,0.00
2023-03-05T00:35:22.403Z,0.00
2023-03-05T00:36:22.381Z,0.00
2023-03-05T00:37:22.400Z,0.00
2023-03-05T00:38:22.384Z,0.00
2023-03-05T00:39:22.380Z,0.00
2023-03-05T00:40:22.503Z,0.00
2023-03-05T00:41:22.394Z,0.00
2023-03-05T00:42:22.404Z,0.00
2023-03-05T00:43:22.399Z,0.00
2023-03-05T00:44:22.419Z,0.00
2023-03-05T00:45:22.393Z,0.00
2023-03-05T00:46:22.424Z,0.00
2023-03-05T00:47:22.404Z,0.00
2023-03-05T00:48:22.417Z,0.00
2023-03-05T00:49:22.403Z,0.00
2023-03-05T00:50:22.410Z,0.00
2023-03-05T00:51:22.412Z,0.00
2023-03-05T00:52:22.416Z,0.00
2023-03-05T00:53:22.447Z,0.00
2023-03-05T00:54:22.420Z,0.00
2023-03-05T00:55:22.416Z,0.00
2023-03-05T00:56:22.416Z,0.00
2023-03-05T00:57:22.425Z,0.00
2023-03-05T00:58:22.423Z,0.00
2023-03-05T00:59:22.432Z,0.00
2023-03-05T01:00:22.447Z,0.00
2023-03-05T01:01:22.466Z,0.00
2023-03-05T01:02:22.434Z,0.00
2023-03-05T01:03:22.421Z,0.00
2023-03-05T01:04:22.430Z,0.00
2023-03-05T01:05:22.457Z,0.00
2023-03-05T01:06:22.422Z,0.00
2023-03-05T01:07:22.428Z,0.00
2023-03-05T01:08:22.429Z,0.00
2023-03-05T01:09:22.467Z,0.00
2023-03-05T01:10:22.438Z,0.00
2023-03-05T01:11:22.445Z,0.00
2023-03-05T01:12:22.433Z,0.00
2023-03-05T01:13:22.445Z,0.00
2023-03-05T01:14:22.436Z,0.00
2023-03-05T01:15:22.434Z,0.00
2023-03-05T01:16:22.476Z,0.00
2023-03-05T01:17:22.433Z,0.00
2023-03-05T01:18:22.441Z,0.00
2023-03-05T01:19:22.450Z,0.00
2023-03-05T01:20:22.460Z,0.00
2023-03-05T01:22:22.447Z,0.00
2023-03-05T01:23:22.446Z,0.00
2023-03-05T01:24:22.452Z,0.00
2023-03-05T01:25:22.472Z,0.00
2023-03-05T01:26:22.450Z,0.00
2023-03-05T01:27:22.448Z,0.00
2023-03-05T01:28:22.451Z,0.00
2023-03-05T01:29:22.463Z,0.00
2023-03-05T01:30:22.455Z,0.00
2023-03-05T01:31:22.544Z,0.00
2023-03-05T01:32:22.470Z,0.00
2023-03-05T01:33:22.467Z,0.00
2023-03-05T01:34:22.456Z,0.00
2023-03-05T01:35:22.511Z,0.00
2023-03-05T01:36:22.458Z,0.00
2023-03-05T01:37:22.479Z,0.00
2023-03-05T01:38:22.470Z,0.00
2023-03-05T01:39:22.476Z,0.00
2023-03-05T01:40:22.470Z,0.00
2023-03-05T01:41:22.490Z,0.00
2023-03-05T01:42:22.478Z,0.00
2023-03-05T01:43:22.471Z,0.00
2023-03-05T01:44:22.483Z,0.00
2023-03-05T01:45:22.482Z,0.00
2023-03-05T01:46:22.478Z,0.00
2023-03-05T01:47:22.486Z,0.00
2023-03-05T01:48:22.491Z,0.00
2023-03-05T01:49:22.495Z,0.00
2023-03-05T01:50:22.496Z,0.00
2023-03-05T01:51:22.486Z,0.00
2023-03-05T01:52:22.498Z,0.00
2023-03-05T01:53:22.496Z,0.00
2023-03-05T01:54:22.515Z,0.00
2023-03-05T01:55:22.503Z,0.00
2023-03-05T01:56:22.501Z,0.00
2023-03-05T01:57:22.520Z,0.00
2023-03-05T01:58:22.504Z,0.00
2023-03-05T01:59:22.508Z,0.00
2023-03-05T02:00:22.533Z,0.00
2023-03-05T02:01:22.597Z,0.00
2023-03-05T02:02:22.516Z,0.00
2023-03-05T02:03:22.508Z,0.00
2023-03-05T02:04:22.515Z,0.00
2023-03-05T02:05:22.513Z,0.00
2023-03-05T02:06:22.518Z,0.00
2023-03-05T02:07:22.508Z,0.00
2023-03-05T02:08:22.522Z,0.00
2023-03-05T02:09:22.511Z,0.00
2023-03-05T02:10:22.531Z,0.00
2023-03-05T02:11:22.526Z,0.00
2023-03-05T02:12:22.528Z,0.00
2023-03-05T02:13:22.558Z,0.00
2023-03-05T02:14:22.530Z,0.00
2023-03-05T02:15:22.535Z,0.00
2023-03-05T02:16:22.592Z,0.00
2023-03-05T02:17:22.530Z,0.00
2023-03-05T02:18:22.550Z,0.00
2023-03-05T02:19:22.535Z,0.00
2023-03-05T02:20:22.541Z,0.00
2023-03-05T02:21:22.537Z,0.00
2023-03-05T02:22:22.543Z,0.00
2023-03-05T02:23:22.549Z,0.00
2023-03-05T02:24:22.548Z,0.00
2023-03-05T02:25:22.552Z,0.00
2023-03-05T02:26:22.544Z,0.00
2023-03-05T02:27:22.556Z,0.00
2023-03-05T02:28:22.558Z,0.00
2023-03-05T02:29:22.572Z,0.00
2023-03-05T02:30:22.565Z,0.00
2023-03-05T02:31:22.603Z,0.00
2023-03-05T02:32:22.611Z,0.00
2023-03-05T02:33:22.562Z,0.00
2023-03-05T02:34:22.568Z,0.00
2023-03-05T02:35:22.618Z,0.00
2023-03-05T02:36:22.569Z,0.00
2023-03-05T02:37:22.568Z,0.00
2023-03-05T02:38:22.574Z,0.00
2023-03-05T02:39:22.580Z,0.00
2023-03-05T02:40:22.570Z,0.00
2023-03-05T02:41:22.591Z,0.00
2023-03-05T02:42:22.571Z,0.00
2023-03-05T02:43:22.585Z,0.00
2023-03-05T02:44:22.578Z,0.00
2023-03-05T02:45:22.601Z,0.00
2023-03-05T02:46:22.588Z,0.00
2023-03-05T02:47:22.580Z,0.00
2023-03-05T02:48:22.588Z,0.00
2023-03-05T02:49:22.590Z,0.00
2023-03-05T02:50:22.593Z,0.00
2023-03-05T02:51:22.586Z,0.00
2023-03-05T02:52:22.596Z,0.00
2023-03-05T02:53:22.589Z,0.00
2023-03-05T02:54:22.600Z,0.00
2023-03-05T02:55:22.592Z,0.00
2023-03-05T02:56:22.596Z,0.00
2023-03-05T02:57:22.602Z,0.00
2023-03-05T02:58:22.597Z,0.00
2023-03-05T02:59:22.601Z,0.00
2023-03-05T03:00:22.608Z,0.00
2023-03-05T03:01:22.707Z,0.00
2023-03-05T03:02:22.606Z,0.00
2023-03-05T03:03:22.715Z,0.00
2023-03-05T03:04:22.609Z,0.00
2023-03-05T03:05:22.617Z,0.00
2023-03-05T03:06:22.617Z,0.00
2023-03-05T03:07:22.619Z,0.00
2023-03-05T03:08:22.621Z,0.00
2023-03-05T03:09:22.627Z,0.00
2023-03-05T03:10:22.685Z,0.00
2023-03-05T03:11:22.630Z,0.00
2023-03-05T03:12:22.626Z,0.00
2023-03-05T03:13:22.627Z,0.00
2023-03-05T03:14:22.649Z,0.00
2023-03-05T03:15:22.623Z,0.00
2023-03-05T03:16:22.665Z,0.00
2023-03-05T03:17:22.655Z,0.00
2023-03-05T03:18:22.627Z,0.00
2023-03-05T03:19:22.635Z,0.00
2023-03-05T03:20:22.746Z,0.00
2023-03-05T03:21:22.640Z,0.00
2023-03-05T03:22:22.635Z,0.00
2023-03-05T03:23:22.645Z,0.00
2023-03-05T03:24:22.646Z,0.00
2023-03-05T03:25:22.678Z,0.00
2023-03-05T03:26:22.650Z,0.00
2023-03-05T03:27:22.644Z,0.00
2023-03-05T03:28:22.652Z,0.00
2023-03-05T03:29:22.646Z,0.00
2023-03-05T03:30:22.677Z,0.00
2023-03-05T03:31:22.683Z,0.00
2023-03-05T03:32:22.741Z,0.00
2023-03-05T03:33:22.679Z,0.00
2023-03-05T03:34:22.654Z,0.00
2023-03-05T03:35:22.706Z,0.00
2023-03-05T03:36:22.666Z,0.00
2023-03-05T03:37:22.657Z,0.00
2023-03-05T03:38:22.677Z,0.00
2023-03-05T03:39:22.669Z,0.00
2023-03-05T03:40:22.666Z,0.00
2023-03-05T03:41:22.670Z,0.00
2023-03-05T03:42:22.675Z,0.00
2023-03-05T03:43:22.689Z,0.00
2023-03-05T03:44:22.684Z,0.00
2023-03-05T03:45:22.680Z,0.00
2023-03-05T03:46:22.783Z,0.00
2023-03-05T03:47:22.689Z,0.00
2023-03-05T03:48:22.680Z,0.00
2023-03-05T03:49:22.714Z,0.00
2023-03-05T03:50:22.782Z,0.00
2023-03-05T03:51:22.680Z,0.00
2023-03-05T03:52:22.683Z,0.00
2023-03-05T03:53:22.682Z,0.00
2023-03-05T03:54:22.712Z,0.00
2023-03-05T03:55:22.688Z,0.00
2023-03-05T03:56:22.696Z,0.00
2023-03-05T03:57:22.698Z,0.00
2023-03-05T03:58:22.702Z,0.00
2023-03-05T03:59:22.695Z,0.00
2023-03-05T04:00:22.705Z,0.00
2023-03-05T04:01:22.703Z,0.00
2023-03-05T04:02:22.714Z,0.00
2023-03-05T04:03:22.708Z,0.00
2023-03-05T04:04:22.746Z,0.00
2023-03-05T04:05:22.728Z,0.00
2023-03-05T04:06:22.714Z,0.00
2023-03-05T04:07:22.707Z,0.00
2023-03-05T04:08:22.707Z,0.00
2023-03-05T04:09:22.717Z,0.00
2023-03-05T04:10:22.740Z,0.00
2023-03-05T04:11:22.747Z,0.00
2023-03-05T04:12:22.714Z,0.00
2023-03-05T04:13:22.722Z,0.00
2023-03-05T04:14:22.719Z,0.00
2023-03-05T04:15:22.730Z,0.00
2023-03-05T04:16:22.834Z,0.00
2023-03-05T04:17:22.724Z,0.00
2023-03-05T04:18:22.723Z,0.00
2023-03-05T04:19:22.754Z,0.00
2023-03-05T04:20:22.734Z,0.00
2023-03-05T04:21:22.759Z,0.00
2023-03-05T04:22:22.730Z,0.00
2023-03-05T04:23:22.741Z,0.00
2023-03-05T04:24:22.740Z,0.00
2023-03-05T04:25:22.741Z,0.00
2023-03-05T04:26:22.748Z,0.00
2023-03-05T04:27:22.734Z,0.00
2023-03-05T04:28:22.741Z,0.00
2023-03-05T04:29:22.743Z,0.00
2023-03-05T04:30:22.746Z,0.00
2023-03-05T04:31:22.770Z,0.00
2023-03-05T04:32:22.825Z,0.00
2023-03-05T04:33:22.757Z,0.00
2023-03-05T04:34:22.751Z,0.00
2023-03-05T04:35:22.818Z,0.00
2023-03-05T04:36:22.744Z,0.00
2023-03-05T04:37:22.770Z,0.00
2023-03-05T04:38:22.754Z,0.00
2023-03-05T04:39:22.752Z,0.00
2023-03-05T04:40:22.765Z,0.00
2023-03-05T04:41:22.772Z,0.00
2023-03-05T04:42:22.760Z,0.00
2023-03-05T04:43:22.753Z,0.00
2023-03-05T04:44:22.757Z,0.00
2023-03-05T04:45:22.766Z,0.00
2023-03-05T04:46:22.803Z,0.00
2023-03-05T04:47:22.758Z,0.00
2023-03-05T04:48:22.769Z,0.00
2023-03-05T04:49:22.765Z,0.00
2023-03-05T04:50:22.762Z,0.00
2023-03-05T04:51:22.764Z,0.00
2023-03-05T04:52:22.768Z,0.00
2023-03-05T04:53:22.805Z,0.00
2023-03-05T04:54:22.824Z,0.00
2023-03-05T04:55:22.777Z,0.00
2023-03-05T04:56:22.771Z,0.00
2023-03-05T04:57:24.044Z,0.00
2023-03-05T04:58:22.780Z,0.00
2023-03-05T04:59:22.781Z,0.00
2023-03-05T05:00:22.784Z,0.00
2023-03-05T05:01:22.846Z,0.00
2023-03-05T05:02:22.801Z,0.00
2023-03-05T05:03:22.785Z,0.00
2023-03-05T05:04:22.784Z,0.00
2023-03-05T05:05:22.792Z,0.00
2023-03-05T05:06:22.797Z,0.00
2023-03-05T05:07:22.788Z,0.00
2023-03-05T05:08:22.797Z,0.00
2023-03-05T05:09:22.812Z,0.00
2023-03-05T05:10:22.792Z,0.00
2023-03-05T05:11:22.797Z,0.00
2023-03-05T05:12:22.805Z,0.00
2023-03-05T05:13:22.796Z,0.00
2023-03-05T05:14:22.806Z,0.00
2023-03-05T05:15:22.840Z,0.00
2023-03-05T05:16:22.812Z,0.00
2023-03-05T05:17:22.809Z,0.00
2023-03-05T05:18:22.816Z,0.00
2023-03-05T05:19:22.878Z,0.00
2023-03-05T05:20:22.821Z,0.00
2023-03-05T05:21:22.807Z,0.00
2023-03-05T05:22:22.809Z,0.00
2023-03-05T05:23:22.819Z,0.00
2023-03-05T05:24:22.821Z,0.00
2023-03-05T05:25:22.833Z,0.00
2023-03-05T05:26:22.828Z,0.00
2023-03-05T05:27:22.823Z,0.00
2023-03-05T05:28:22.832Z,0.00
2023-03-05T05:29:22.830Z,0.00
2023-03-05T05:30:22.836Z,0.00
2023-03-05T05:31:22.881Z,0.00
2023-03-05T05:32:22.970Z,0.00
2023-03-05T05:33:22.833Z,0.00
2023-03-05T05:34:22.830Z,0.00
2023-03-05T05:35:22.910Z,0.00
2023-03-05T05:36:22.875Z,0.00
2023-03-05T05:37:22.834Z,0.00
2023-03-05T05:38:22.834Z,0.00
2023-03-05T05:39:22.843Z,0.00
2023-03-05T05:40:22.845Z,0.00
2023-03-05T05:41:22.862Z,0.00
2023-03-05T05:42:22.851Z,0.00
2023-03-05T05:43:22.852Z,0.00
2023-03-05T05:44:22.863Z,0.00
2023-03-05T05:45:22.904Z,0.00
2023-03-05T05:46:23.130Z,0.00
2023-03-05T05:47:22.860Z,0.00
2023-03-05T05:48:22.873Z,0.00
2023-03-05T05:49:22.860Z,0.00
2023-03-05T05:50:22.870Z,0.00
2023-03-05T05:51:22.867Z,0.00
2023-03-05T05:52:22.861Z,0.00
2023-03-05T05:53:22.868Z,0.00
2023-03-05T05:54:22.871Z,0.00
2023-03-05T05:55:22.864Z,0.00
2023-03-05T05:56:22.878Z,0.00
2023-03-05T05:57:22.892Z,0.00
2023-03-05T05:58:22.867Z,5.63
2023-03-05T05:59:22.875Z,5.63
2023-03-05T06:00:22.865Z,5.63
2023-03-05T06:01:22.872Z,0.00
2023-03-05T06:02:22.940Z,0.00
2023-03-05T06:03:22.908Z,0.00
2023-03-05T06:04:22.874Z,0.00
2023-03-05T06:05:22.896Z,5.63
2023-03-05T06:06:22.913Z,5.63
2023-03-05T06:07:22.889Z,5.63
2023-03-05T06:08:22.879Z,5.63
2023-03-05T06:09:22.890Z,5.63
2023-03-05T06:10:22.887Z,16.88
2023-03-05T06:11:22.911Z,16.88
2023-03-05T06:12:22.892Z,16.88
2023-03-05T06:13:22.907Z,16.88
2023-03-05T06:14:22.896Z,22.50
2023-03-05T06:15:23.083Z,22.50
2023-03-05T06:16:22.972Z,28.13
2023-03-05T06:17:30.378Z,28.13
2023-03-05T06:18:22.897Z,22.50
2023-03-05T06:19:22.894Z,28.13
2023-03-05T06:20:22.897Z,28.13
2023-03-05T06:21:22.913Z,28.13
2023-03-05T06:22:22.901Z,28.13
2023-03-05T06:23:22.906Z,28.13
2023-03-05T06:24:22.901Z,33.75
2023-03-05T06:25:22.912Z,33.75
2023-03-05T06:26:22.910Z,39.38
2023-03-05T06:27:22.912Z,39.38
2023-03-05T06:28:22.914Z,45.00
2023-03-05T06:29:22.935Z,45.00
2023-03-05T06:30:22.910Z,45.00
2023-03-05T06:31:22.934Z,45.00
2023-03-05T06:32:22.963Z,50.63
2023-03-05T06:33:22.919Z,50.63
2023-03-05T06:34:22.913Z,50.63
2023-03-05T06:35:22.976Z,50.63
2023-03-05T06:36:22.934Z,50.63
2023-03-05T06:37:22.918Z,50.63
2023-03-05T06:38:22.936Z,50.63
2023-03-05T06:39:22.921Z,56.25
2023-03-05T06:40:22.923Z,61.88
2023-03-05T06:41:22.935Z,61.88
2023-03-05T06:42:22.928Z,61.88
2023-03-05T06:43:22.926Z,67.50
2023-03-05T06:44:22.936Z,67.50
2023-03-05T06:45:22.957Z,67.50
2023-03-05T06:46:23.017Z,73.13
2023-03-05T06:47:22.933Z,73.13
2023-03-05T06:48:22.938Z,73.13
2023-03-05T06:49:22.942Z,78.75
2023-03-05T06:50:22.934Z,78.75
2023-03-05T06:51:22.958Z,78.75
2023-03-05T06:52:22.965Z,84.38
2023-03-05T06:53:22.940Z,84.38
2023-03-05T06:54:22.945Z,84.38
2023-03-05T06:55:22.974Z,90.00
2023-03-05T06:56:22.945Z,90.00
2023-03-05T06:57:22.980Z,90.00
2023-03-05T06:58:22.958Z,90.00
2023-03-05T06:59:22.959Z,95.63
2023-03-05T07:00:22.952Z,95.63
2023-03-05T07:01:23.025Z,95.63
2023-03-05T07:02:22.988Z,95.63
2023-03-05T07:03:22.974Z,95.63
2023-03-05T07:04:22.966Z,101.25
2023-03-05T07:05:22.977Z,101.25
2023-03-05T07:06:22.972Z,101.25
2023-03-05T07:07:22.970Z,106.88
2023-03-05T07:08:22.972Z,112.50
2023-03-05T07:09:22.967Z,118.13
2023-03-05T07:10:23.005Z,118.13
2023-03-05T07:11:22.970Z,118.13
2023-03-05T07:12:22.973Z,118.13
2023-03-05T07:13:22.972Z,123.75
2023-03-05T07:14:22.990Z,123.75
2023-03-05T07:15:23.008Z,123.75
2023-03-05T07:16:22.978Z,129.38
2023-03-05T07:17:23.002Z,135.00
2023-03-05T07:18:22.987Z,135.00
2023-03-05T07:19:22.989Z,135.00
2023-03-05T07:20:22.994Z,140.63
2023-03-05T07:21:23.004Z,146.25
2023-03-05T07:22:23.006Z,151.88
2023-03-05T07:23:23.003Z,151.88
2023-03-05T07:24:23.003Z,157.50
2023-03-05T07:25:22.995Z,157.50
2023-03-05T07:26:23.001Z,151.88
2023-03-05T07:27:23.012Z,151.88
2023-03-05T07:28:23.008Z,157.50
2023-03-05T07:29:23.005Z,157.50
2023-03-05T07:30:23.019Z,151.88
2023-03-05T07:31:27.603Z,140.63
2023-03-05T07:32:23.059Z,140.63
2023-03-05T07:33:23.039Z,140.63
2023-03-05T07:34:24.130Z,135.00
2023-03-05T07:35:23.084Z,106.88
2023-03-05T07:36:23.024Z,95.63
2023-03-05T07:37:24.442Z,95.63
2023-03-05T07:38:23.029Z,84.38
2023-03-05T07:39:23.033Z,73.13
2023-03-05T07:40:23.038Z,73.13
2023-03-05T07:41:23.043Z,67.50
2023-03-05T07:42:23.108Z,61.88
2023-03-05T07:43:23.034Z,61.88
2023-03-05T07:44:23.033Z,73.13
2023-03-05T07:45:23.037Z,67.50
2023-03-05T07:46:23.178Z,78.75
2023-03-05T07:47:23.053Z,73.13
2023-03-05T07:48:25.698Z,61.88
2023-03-05T07:49:23.052Z,50.63
2023-03-05T07:50:23.054Z,45.00
2023-03-05T07:51:23.057Z,39.38
2023-03-05T07:52:23.049Z,33.75
2023-03-05T07:53:23.054Z,28.13
2023-03-05T07:54:23.057Z,28.13
2023-03-05T07:55:23.059Z,33.75
2023-03-05T07:56:23.060Z,33.75
2023-03-05T07:57:23.070Z,39.38
2023-03-05T07:58:23.065Z,50.63
2023-03-05T07:59:23.074Z,56.25
2023-03-05T08:00:23.076Z,67.50
2023-03-05T08:01:23.077Z,67.50
2023-03-05T08:02:23.127Z,84.38
2023-03-05T08:03:23.077Z,84.38
2023-03-05T08:04:25.737Z,61.88
2023-03-05T08:05:23.078Z,56.25
2023-03-05T08:06:23.077Z,73.13
2023-03-05T08:07:23.088Z,78.75
2023-03-05T08:08:26.723Z,90.00
2023-03-05T08:09:23.092Z,90.00
2023-03-05T08:10:23.097Z,90.00
2023-03-05T08:11:23.085Z,90.00
2023-03-05T08:12:23.088Z,84.38
2023-03-05T08:13:23.091Z,78.75
2023-03-05T08:14:23.093Z,78.75
2023-03-05T08:15:23.107Z,84.38
2023-03-05T08:16:23.187Z,90.00
2023-03-05T08:17:23.097Z,84.38
2023-03-05T08:18:23.105Z,90.00
2023-03-05T08:20:05.712Z,84.38
2023-03-05T08:21:05.647Z,73.13
2023-03-05T08:22:05.645Z,73.13
2023-03-05T08:23:08.277Z,61.88
2023-03-05T08:24:08.680Z,61.88
2023-03-05T08:25:05.664Z,50.63
2023-03-05T08:26:05.662Z,45.00
2023-03-05T08:27:05.657Z,39.38
2023-03-05T08:28:05.655Z,33.75
2023-03-05T08:29:05.653Z,39.38
2023-03-05T08:30:05.676Z,50.63
2023-03-05T08:31:05.706Z,50.63
2023-03-05T08:32:05.738Z,56.25
2023-03-05T08:33:05.670Z,67.50
2023-03-05T08:34:05.676Z,73.13
2023-03-05T08:35:05.674Z,78.75
2023-03-05T08:36:05.696Z,84.38
2023-03-05T08:37:05.669Z,78.75
2023-03-05T08:38:05.673Z,78.75
2023-03-05T08:39:09.109Z,90.00
2023-03-05T08:40:05.690Z,78.75
2023-03-05T08:41:48.218Z,61.88
2023-03-05T08:44:38.349Z,67.50
2023-03-05T08:45:38.343Z,67.50
2023-03-05T08:46:38.443Z,84.38
2023-03-05T08:47:38.354Z,106.88
2023-03-05T08:48:38.361Z,151.88
2023-03-05T08:49:38.361Z,185.63
2023-03-05T08:50:39.067Z,185.63
2023-03-05T08:51:38.380Z,168.75
2023-03-05T08:52:38.364Z,151.88
2023-03-05T08:53:38.361Z,123.75
2023-03-05T08:54:38.366Z,135.00
2023-03-05T08:55:38.363Z,146.25
2023-03-05T08:56:38.363Z,146.25
2023-03-05T08:57:38.372Z,168.75
2023-03-05T08:58:38.369Z,174.38
2023-03-05T08:59:41.193Z,180.00
2023-03-05T09:00:38.373Z,196.88
2023-03-05T09:02:20.941Z,225.00
2023-03-05T09:03:20.925Z,208.13
2023-03-05T09:04:20.925Z,180.00
2023-03-05T09:05:20.917Z,135.00
2023-03-05T09:06:20.924Z,135.00
2023-03-05T09:07:20.952Z,135.00
2023-03-05T09:09:08.481Z,140.63
2023-03-05T09:10:12.510Z,129.38
2023-03-05T09:11:08.478Z,140.63
2023-03-05T09:12:51.023Z,163.13
2023-03-05T09:13:51.029Z,202.50
2023-03-05T09:14:51.033Z,191.25
2023-03-05T09:15:51.025Z,174.38
2023-03-05T09:16:51.027Z,163.13
2023-03-05T09:17:51.031Z,151.88
2023-03-05T09:18:51.038Z,129.38
2023-03-05T09:19:51.041Z,118.13
2023-03-05T09:20:51.034Z,101.25
2023-03-05T09:21:51.045Z,106.88
2023-03-05T09:22:51.066Z,106.88
2023-03-05T09:23:51.041Z,112.50
2023-03-05T09:24:51.044Z,112.50
2023-03-05T09:25:51.046Z,129.38
2023-03-05T09:26:51.050Z,135.00
2023-03-05T09:27:51.061Z,135.00
2023-03-05T09:28:51.053Z,135.00
2023-03-05T09:29:51.066Z,129.38
2023-03-05T09:30:51.060Z,118.13
2023-03-05T09:31:51.185Z,112.50
2023-03-05T09:32:51.083Z,112.50
2023-03-05T09:33:51.072Z,106.88
2023-03-05T09:34:51.070Z,101.25
2023-03-05T09:35:51.098Z,90.00
2023-03-05T09:36:51.083Z,95.63
2023-03-05T09:37:51.079Z,101.25
2023-03-05T09:38:51.112Z,146.25
2023-03-05T09:39:51.089Z,180.00
2023-03-05T09:40:51.096Z,202.50
2023-03-05T09:41:51.103Z,202.50
2023-03-05T09:42:51.103Z,191.25
2023-03-05T09:43:51.090Z,174.38
2023-03-05T09:44:51.102Z,163.13
2023-03-05T09:45:51.162Z,140.63
2023-03-05T09:46:51.104Z,123.75
2023-03-05T09:47:51.116Z,112.50
2023-03-05T09:48:51.105Z,90.00
2023-03-05T09:49:51.115Z,73.13
2023-03-05T09:50:51.133Z,61.88
2023-03-05T09:51:51.128Z,61.88
2023-03-05T09:52:51.113Z,67.50
2023-03-05T09:53:51.122Z,84.38
2023-03-05T09:54:51.143Z,67.50
2023-03-05T09:55:51.126Z,67.50
2023-03-05T09:56:51.129Z,73.13
2023-03-05T09:57:51.133Z,67.50
2023-03-05T09:58:51.128Z,67.50
2023-03-05T09:59:51.148Z,95.63
2023-03-05T10:00:51.143Z,90.00
2023-03-05T10:01:51.136Z,106.88
2023-03-05T10:02:51.159Z,118.13
2023-03-05T10:03:51.249Z,95.63
2023-03-05T10:04:51.148Z,118.13
2023-03-05T10:05:51.152Z,118.13
2023-03-05T10:06:51.169Z,129.38
2023-03-05T10:07:51.150Z,168.75
2023-03-05T10:08:51.155Z,118.13
2023-03-05T10:09:51.165Z,174.38
2023-03-05T10:10:51.179Z,191.25
2023-03-05T10:11:51.171Z,270.00
2023-03-05T10:12:51.159Z,275.63
2023-03-05T10:13:51.167Z,247.50
2023-03-05T10:14:51.161Z,225.00
2023-03-05T10:15:51.169Z,196.88
2023-03-05T10:16:51.239Z,185.63
2023-03-05T10:17:51.173Z,174.38
2023-03-05T10:18:51.173Z,157.50
2023-03-05T10:19:51.180Z,151.88
2023-03-05T10:20:51.181Z,157.50
2023-03-05T10:21:51.192Z,129.38
2023-03-05T10:22:51.188Z,78.75
2023-03-05T10:23:51.187Z,67.50
2023-03-05T10:24:51.193Z,67.50
2023-03-05T10:25:51.190Z,67.50
2023-03-05T10:26:51.297Z,78.75
2023-03-05T10:27:53.738Z,84.38
2023-03-05T10:28:51.198Z,90.00
2023-03-05T10:29:51.215Z,95.63
2023-03-05T10:30:51.215Z,78.75
2023-03-05T10:31:51.260Z,56.25
2023-03-05T10:32:51.247Z,90.00
2023-03-05T10:33:51.215Z,135.00
2023-03-05T10:34:51.213Z,168.75
2023-03-05T10:35:51.272Z,208.13
2023-03-05T10:36:51.214Z,258.75
2023-03-05T10:37:51.220Z,354.38
2023-03-05T10:38:51.226Z,545.63
2023-03-05T10:39:51.224Z,821.25
2023-03-05T10:40:51.227Z,590.63
2023-03-05T10:41:51.236Z,624.38
2023-03-05T10:42:51.255Z,579.38
2023-03-05T10:43:51.234Z,562.50
2023-03-05T10:44:51.252Z,495.00
2023-03-05T10:45:51.280Z,421.88
2023-03-05T10:46:51.246Z,478.13
2023-03-05T10:47:51.252Z,528.75
2023-03-05T10:48:51.247Z,607.50
2023-03-05T10:49:51.273Z,613.13
2023-03-05T10:50:51.261Z,556.88
2023-03-05T10:51:51.259Z,725.63
2023-03-05T10:53:48.898Z,641.25
2023-03-05T10:54:50.252Z,585.00
2023-03-05T10:55:48.947Z,562.50
2023-03-05T10:56:48.854Z,523.13
2023-03-05T10:57:48.955Z,466.88
2023-03-05T10:58:48.974Z,466.88
2023-03-05T10:59:48.861Z,393.75
2023-03-05T11:00:48.857Z,320.63
2023-03-05T11:01:48.869Z,371.25
2023-03-05T11:02:48.918Z,337.50
2023-03-05T11:03:48.869Z,360.00
2023-03-05T11:04:48.872Z,371.25
2023-03-05T11:05:48.887Z,360.00
2023-03-05T11:06:48.883Z,360.00
2023-03-05T11:07:48.892Z,371.25
2023-03-05T11:08:48.893Z,331.88
2023-03-05T11:09:48.902Z,326.25
2023-03-05T11:10:48.905Z,348.75
2023-03-05T11:11:48.906Z,309.38
2023-03-05T11:12:48.914Z,247.50
2023-03-05T11:13:48.910Z,247.50
2023-03-05T11:14:48.939Z,219.38
2023-03-05T11:15:48.933Z,298.13
2023-03-05T11:16:48.928Z,303.75
2023-03-05T11:17:49.069Z,236.25
2023-03-05T11:18:48.930Z,241.88
2023-03-05T11:19:48.930Z,281.25
2023-03-05T11:21:48.943Z,528.75
2023-03-05T11:22:48.973Z,337.50
2023-03-05T11:23:48.956Z,230.63
2023-03-05T11:24:48.952Z,185.63
2023-03-05T11:25:48.964Z,163.13
2023-03-05T11:26:49.020Z,168.75
2023-03-05T11:27:50.640Z,163.13
2023-03-05T11:28:48.982Z,163.13
2023-03-05T11:29:48.972Z,157.50
2023-03-05T11:30:49.026Z,135.00
2023-03-05T11:31:48.975Z,123.75
2023-03-05T11:33:31.537Z,213.75
2023-03-05T11:34:34.961Z,253.13
2023-03-05T11:35:31.578Z,416.25
2023-03-05T11:37:14.080Z,416.25
2023-03-05T11:38:14.074Z,303.75
2023-03-05T11:39:15.501Z,348.75
2023-03-05T12:15:10.022Z,1220.63
2023-03-05T12:16:10.066Z,1428.75
2023-03-05T12:17:10.000Z,1383.75
2023-03-05T12:18:10.011Z,1316.25
2023-03-05T12:19:10.015Z,1310.63
2023-03-05T12:20:10.056Z,950.63
2023-03-05T12:21:10.030Z,922.50
2023-03-05T12:22:10.044Z,517.50
2023-03-05T12:23:10.052Z,427.50
2023-03-05T12:24:10.059Z,433.13
2023-03-05T12:25:10.062Z,601.88
2023-03-05T12:26:10.068Z,680.63
2023-03-05T12:27:10.081Z,894.38
2023-03-05T12:28:10.088Z,1816.88
2023-03-05T12:29:10.104Z,720.00
2023-03-05T12:30:10.116Z,579.38
2023-03-05T12:31:10.205Z,545.63
2023-03-05T12:32:10.183Z,590.63
2023-03-05T12:33:10.126Z,1108.13
2023-03-05T12:34:10.135Z,1783.13
2023-03-05T12:35:10.150Z,630.00
2023-03-05T12:36:10.150Z,635.63
2023-03-05T12:37:10.161Z,720.00
2023-03-05T12:38:25.858Z,1749.38
2023-03-05T12:39:10.184Z,1001.25
2023-03-05T12:40:10.191Z,708.75
2023-03-05T12:41:10.204Z,596.25
2023-03-05T12:42:10.208Z,444.38
2023-03-05T12:43:10.216Z,466.88
2023-03-05T12:44:10.224Z,450.00
2023-03-05T12:45:10.242Z,376.88
2023-03-05T12:46:10.242Z,337.50
2023-03-05T12:47:10.270Z,275.63
2023-03-05T12:49:37.886Z,315.00
2023-03-05T12:50:37.904Z,517.50
2023-03-05T12:51:37.915Z,708.75
2023-03-05T12:52:37.917Z,1558.13
2023-03-05T12:53:37.916Z,511.88
2023-03-05T12:54:37.930Z,556.88
2023-03-05T12:55:37.940Z,523.13
2023-03-05T12:59:03.791Z,450.00
2023-03-05T13:00:03.812Z,585.00
2023-03-05T13:01:03.902Z,646.88
2023-03-05T13:02:03.831Z,1310.63
2023-03-05T13:03:03.836Z,916.88
2023-03-05T13:04:03.897Z,888.75
2023-03-05T13:05:03.829Z,472.50
2023-03-05T13:06:03.841Z,309.38
2023-03-05T13:07:03.860Z,421.88
2023-03-05T13:08:03.859Z,528.75
2023-03-05T13:09:03.869Z,568.13
2023-03-05T13:10:03.863Z,714.38
2023-03-05T13:11:03.888Z,748.13
2023-03-05T13:12:03.956Z,781.88
2023-03-05T13:13:03.891Z,624.38
2023-03-05T13:14:03.913Z,669.38
2023-03-05T13:15:03.910Z,922.50
2023-03-05T13:16:03.965Z,376.88
2023-03-05T13:17:03.917Z,331.88
2023-03-05T13:18:03.933Z,303.75
2023-03-05T13:19:03.950Z,281.25
2023-03-05T13:20:03.942Z,309.38
2023-03-05T13:21:03.948Z,360.00
2023-03-05T13:22:03.956Z,331.88
2023-03-05T13:23:03.972Z,337.50
2023-03-05T13:24:03.977Z,354.38
2023-03-05T13:25:03.967Z,360.00
2023-03-05T13:26:03.981Z,427.50
2023-03-05T13:27:03.988Z,1018.13
2023-03-05T13:28:04.001Z,495.00
2023-03-05T13:29:03.993Z,601.88
2023-03-05T13:30:04.014Z,815.63
2023-03-05T13:31:04.016Z,1141.88
2023-03-05T13:32:04.091Z,1164.38
2023-03-05T13:33:04.020Z,1051.88
2023-03-05T13:34:04.032Z,1293.75
2023-03-05T13:35:04.054Z,1265.63
2023-03-05T13:36:04.046Z,1248.75
2023-03-05T13:37:04.047Z,995.63
2023-03-05T13:42:13.221Z,281.25
2023-03-05T13:43:13.228Z,320.63
2023-03-05T13:57:19.400Z,315.00
2023-03-05T13:58:19.151Z,298.13
2023-03-05T13:59:18.985Z,281.25
2023-03-05T14:00:19.011Z,270.00
2023-03-05T14:01:19.404Z,275.63
2023-03-05T14:02:19.639Z,298.13